createdAt,value
2022-12-11T00:01:54.915Z,12.98
2022-12-11T00:04:23.641Z,13.20
2022-12-11T00:06:53.010Z,9.73
2022-12-11T00:09:25.148Z,9.45
2022-12-11T00:11:53.737Z,9.07
2022-12-11T00:14:22.224Z,9.63
2022-12-11T00:16:50.741Z,9.77
2022-12-11T00:19:19.381Z,9.77
2022-12-11T00:21:48.038Z,10.13
2022-12-11T00:24:16.976Z,9.75
2022-12-11T00:26:46.851Z,8.73
2022-12-11T00:29:16.401Z,8.97
2022-12-11T00:31:45.109Z,9.15
2022-12-11T00:34:13.782Z,9.27
2022-12-11T00:36:42.396Z,8.45
2022-12-11T00:39:11.126Z,9.75
2022-12-11T00:41:41.932Z,9.10
2022-12-11T00:44:19.054Z,9.50
2022-12-11T00:46:47.597Z,9.30
2022-12-11T00:49:16.227Z,9.60
2022-12-11T00:51:44.801Z,9.55
2022-12-11T00:54:13.737Z,9.27
2022-12-11T00:56:42.389Z,10.50
2022-12-11T00:59:12.402Z,9.65
2022-12-11T01:01:41.138Z,9.40
2022-12-11T01:04:10.084Z,9.52
2022-12-11T01:06:38.614Z,9.27
2022-12-11T01:09:24.770Z,9.68
2022-12-11T01:11:53.919Z,10.20
2022-12-11T01:14:29.270Z,8.77
2022-12-11T01:17:00.808Z,9.30
2022-12-11T01:19:29.700Z,9.57
2022-12-11T01:21:58.247Z,9.68
2022-12-11T01:24:26.810Z,8.95
2022-12-11T01:26:55.264Z,9.65
2022-12-11T01:29:30.626Z,9.43
2022-12-11T01:32:00.347Z,9.57
2022-12-11T01:34:30.719Z,9.25
2022-12-11T01:36:59.226Z,9.85
2022-12-11T01:39:28.314Z,9.50
2022-12-11T01:41:58.949Z,9.57
2022-12-11T01:45:04.771Z,9.60
2022-12-11T01:47:34.659Z,9.70
2022-12-11T01:50:03.176Z,9.48
2022-12-11T01:52:31.751Z,9.57
2022-12-11T01:55:00.539Z,9.85
2022-12-11T01:57:29.184Z,9.03
2022-12-11T01:59:58.014Z,9.50
2022-12-11T02:02:30.719Z,9.02
2022-12-11T02:05:00.991Z,9.35
2022-12-11T02:07:40.976Z,9.77
2022-12-11T02:10:12.339Z,10.30
2022-12-11T02:12:47.559Z,9.65
2022-12-11T02:15:22.678Z,9.88
2022-12-11T02:17:58.830Z,9.68
2022-12-11T02:20:35.523Z,9.70
2022-12-11T02:23:50.278Z,9.40
2022-12-11T02:26:36.356Z,9.93
2022-12-11T02:29:09.687Z,9.73
2022-12-11T02:31:43.609Z,9.75
2022-12-11T02:34:14.839Z,10.00
2022-12-11T02:36:48.650Z,9.77
2022-12-11T02:39:18.648Z,9.80
2022-12-11T02:41:50.509Z,9.75
2022-12-11T02:44:23.691Z,10.02
2022-12-11T02:46:53.110Z,8.93
2022-12-11T02:49:24.491Z,9.23
2022-12-11T02:51:55.894Z,9.82
2022-12-11T02:54:28.169Z,10.13
2022-12-11T02:57:02.914Z,9.85
2022-12-11T02:59:37.418Z,9.98
2022-12-11T03:02:06.867Z,9.23
2022-12-11T03:04:37.451Z,9.02
2022-12-11T03:07:13.061Z,10.38
2022-12-11T03:09:42.091Z,9.27
2022-12-11T03:12:13.530Z,9.93
2022-12-11T03:14:44.603Z,9.43
2022-12-11T03:17:17.183Z,10.45
2022-12-11T03:19:52.445Z,10.73
2022-12-11T03:22:25.558Z,9.32
2022-12-11T03:25:01.023Z,9.13
2022-12-11T03:27:35.978Z,8.60
2022-12-11T03:30:08.578Z,9.07
2022-12-11T03:32:42.260Z,9.70
2022-12-11T03:35:15.794Z,8.40
2022-12-11T03:37:46.012Z,9.35
2022-12-11T03:40:17.846Z,9.17
2022-12-11T03:42:49.809Z,10.15
2022-12-11T03:45:22.279Z,9.27
2022-12-11T03:47:53.760Z,8.80
2022-12-11T03:50:26.158Z,8.77
2022-12-11T03:52:56.066Z,8.40
2022-12-11T03:55:25.330Z,8.88
2022-12-11T03:57:54.374Z,8.70
2022-12-11T04:00:24.975Z,8.68
2022-12-11T04:03:12.979Z,8.35
2022-12-11T04:05:42.817Z,7.60
2022-12-11T04:08:11.427Z,8.05
2022-12-11T04:10:40.404Z,8.30
2022-12-11T04:13:09.213Z,7.95
2022-12-11T04:15:38.823Z,8.13
2022-12-11T04:18:25.303Z,8.63
2022-12-11T04:21:12.095Z,8.85
2022-12-11T04:23:57.920Z,7.63
2022-12-11T04:26:26.671Z,7.88
2022-12-11T04:28:55.179Z,8.10
2022-12-11T04:31:25.201Z,8.17
2022-12-11T04:33:53.842Z,7.90
2022-12-11T04:36:22.378Z,7.88
2022-12-11T04:38:51.140Z,8.48
2022-12-11T04:41:19.997Z,7.43
2022-12-11T04:43:51.924Z,7.57
2022-12-11T04:46:22.584Z,8.25
2022-12-11T04:48:57.356Z,8.07
2022-12-11T04:51:26.453Z,8.20
2022-12-11T04:53:55.138Z,8.32
2022-12-11T04:56:23.691Z,8.97
2022-12-11T04:58:52.227Z,7.85
2022-12-11T05:01:22.428Z,8.43
2022-12-11T05:03:52.405Z,8.82
2022-12-11T05:06:20.866Z,8.10
2022-12-11T05:08:49.454Z,8.10
2022-12-11T05:11:18.108Z,7.97
2022-12-11T05:13:47.208Z,9.18
2022-12-11T05:16:17.538Z,8.15
2022-12-11T05:18:47.567Z,8.48
2022-12-11T05:21:17.975Z,8.90
2022-12-11T05:23:46.987Z,8.65
2022-12-11T05:26:19.545Z,8.85
2022-12-11T05:28:48.407Z,8.35
2022-12-11T05:31:18.871Z,7.75
2022-12-11T05:33:50.242Z,8.03
2022-12-11T05:36:22.257Z,9.65
2022-12-11T05:38:51.147Z,8.68
2022-12-11T05:41:22.185Z,9.32
2022-12-11T05:43:51.215Z,9.20
2022-12-11T05:46:21.321Z,8.87
2022-12-11T05:48:52.130Z,8.75
2022-12-11T05:51:22.116Z,9.52
2022-12-11T05:53:52.616Z,8.32
2022-12-11T05:56:23.399Z,8.98
2022-12-11T05:58:52.673Z,9.27
2022-12-11T06:01:23.387Z,9.82
2022-12-11T06:03:52.382Z,9.55
2022-12-11T06:06:22.681Z,8.48
2022-12-11T06:08:56.035Z,9.23
2022-12-11T06:11:25.982Z,8.90
2022-12-11T06:13:55.032Z,9.90
2022-12-11T06:16:24.316Z,10.27
2022-12-11T06:18:58.024Z,9.32
2022-12-11T06:21:32.005Z,9.38
2022-12-11T06:24:02.428Z,9.33
2022-12-11T06:26:32.323Z,9.13
2022-12-11T06:29:01.239Z,9.15
2022-12-11T06:31:30.151Z,9.15
2022-12-11T06:33:58.941Z,10.18
2022-12-11T06:36:29.263Z,9.57
2022-12-11T06:38:58.532Z,8.88
2022-12-11T06:41:28.345Z,8.57
2022-12-11T06:43:57.032Z,8.90
2022-12-11T06:46:29.910Z,9.30
2022-12-11T06:49:00.186Z,9.87
2022-12-11T06:54:20.278Z,9.63
2022-12-11T06:57:15.866Z,9.30
2022-12-11T06:59:47.567Z,9.50
2022-12-11T07:02:32.796Z,9.63
2022-12-11T07:05:12.349Z,9.48
2022-12-11T07:07:43.130Z,9.75
2022-12-11T07:10:12.959Z,9.30
2022-12-11T07:13:24.945Z,9.30
2022-12-11T07:16:43.679Z,9.67
2022-12-11T07:26:08.042Z,9.80
2022-12-11T07:28:39.055Z,11.30
2022-12-11T07:31:15.041Z,9.87
2022-12-11T07:33:45.713Z,10.02
2022-12-11T07:36:16.515Z,10.30
2022-12-11T07:38:47.160Z,10.60
2022-12-11T07:41:22.925Z,10.80
2022-12-11T07:44:01.010Z,10.13
2022-12-11T07:46:34.716Z,10.48
2022-12-11T07:49:05.609Z,10.73
2022-12-11T07:51:39.564Z,9.98
2022-12-11T07:54:15.717Z,11.13
2022-12-11T07:57:21.633Z,9.73
2022-12-11T07:59:51.203Z,10.00
2022-12-11T08:02:20.253Z,10.30
2022-12-11T08:04:50.367Z,9.82
2022-12-11T08:07:20.640Z,9.77
2022-12-11T08:09:49.698Z,10.37
2022-12-11T08:12:18.576Z,9.90
2022-12-11T08:14:48.496Z,9.95
2022-12-11T08:17:29.598Z,10.60
2022-12-11T08:20:01.919Z,10.63
2022-12-11T08:23:05.062Z,9.60
2022-12-11T08:30:06.191Z,9.27
2022-12-11T08:32:52.563Z,9.85
2022-12-11T08:35:21.172Z,10.27
2022-12-11T08:37:50.420Z,9.57
2022-12-11T08:40:30.291Z,8.95
2022-12-11T08:43:23.289Z,10.02
2022-12-11T08:47:00.307Z,9.13
2022-12-11T08:49:34.182Z,9.00
2022-12-11T08:52:03.377Z,9.37
2022-12-11T08:54:31.863Z,9.60
2022-12-11T08:57:00.491Z,9.25
2022-12-11T08:59:29.241Z,8.82
2022-12-11T09:01:59.105Z,9.90
2022-12-11T09:04:27.854Z,9.87
2022-12-11T09:06:56.846Z,9.25
2022-12-11T09:09:25.510Z,9.27
2022-12-11T09:11:55.423Z,8.68
2022-12-11T09:14:28.467Z,8.65
2022-12-11T09:17:05.804Z,8.70
2022-12-11T09:19:34.649Z,9.10
2022-12-11T09:22:03.380Z,9.10
2022-12-11T09:24:32.274Z,9.15
2022-12-11T09:27:01.286Z,9.10
2022-12-11T09:29:40.852Z,9.00
2022-12-11T09:32:11.390Z,8.30
2022-12-11T09:34:39.814Z,9.32
2022-12-11T09:37:08.214Z,8.80
2022-12-11T09:39:36.677Z,8.93
2022-12-11T09:42:22.780Z,8.27
2022-12-11T09:44:54.939Z,8.27
2022-12-11T09:47:31.659Z,7.30
2022-12-11T09:50:05.651Z,7.38
2022-12-11T09:52:41.720Z,8.23
2022-12-11T09:55:17.844Z,8.30
2022-12-11T09:58:44.260Z,8.55
2022-12-11T10:04:48.277Z,7.95
2022-12-11T10:12:01.918Z,7.50
2022-12-11T10:14:41.909Z,7.72
2022-12-11T10:17:26.750Z,8.00
2022-12-11T10:20:26.710Z,7.88
2022-12-11T10:26:51.309Z,7.23
2022-12-11T10:29:25.392Z,6.70
2022-12-11T10:35:33.917Z,6.28
2022-12-11T10:38:14.278Z,6.80
2022-12-11T10:41:06.630Z,6.80
2022-12-11T10:43:39.181Z,7.50
2022-12-11T11:47:51.074Z,5.70
2022-12-11T11:50:26.695Z,6.18
2022-12-11T11:53:08.052Z,6.78
2022-12-11T11:55:51.626Z,5.97
2022-12-11T11:58:24.623Z,6.13
2022-12-11T12:00:55.861Z,5.75
2022-12-11T12:03:26.757Z,6.95
2022-12-11T12:05:59.590Z,5.55
2022-12-11T12:08:41.061Z,5.43
2022-12-11T12:11:21.016Z,5.65
2022-12-11T12:14:00.155Z,6.28
2022-12-11T12:16:52.804Z,6.13
2022-12-11T12:20:23.539Z,6.07
2022-12-11T12:23:16.665Z,6.47
2022-12-11T12:25:50.697Z,6.45
2022-12-11T12:33:29.572Z,6.13
2022-12-11T12:36:13.234Z,5.68
2022-12-11T12:38:56.015Z,6.43
2022-12-11T12:41:38.060Z,6.43
2022-12-11T12:44:33.340Z,6.35
2022-12-11T12:51:00.108Z,5.88
2022-12-11T12:53:43.762Z,5.70
2022-12-11T13:25:47.049Z,6.93
2022-12-11T13:28:27.620Z,6.90
2022-12-11T13:31:48.639Z,6.32
2022-12-11T13:34:26.859Z,6.53
2022-12-11T13:36:58.601Z,5.83
2022-12-11T13:39:29.131Z,6.10
2022-12-11T13:42:07.055Z,5.75
2022-12-11T13:44:40.497Z,5.97
2022-12-11T13:47:18.204Z,5.60
2022-12-11T13:49:52.287Z,5.63
2022-12-11T13:52:23.445Z,5.93
2022-12-11T13:54:59.269Z,6.15
2022-12-11T13:57:29.694Z,6.15
2022-12-11T14:00:01.627Z,5.65
2022-12-11T14:02:36.759Z,6.17
2022-12-11T14:05:34.364Z,6.53
2022-12-11T14:09:13.977Z,6.13
2022-12-11T14:11:57.682Z,5.90
2022-12-11T14:14:57.015Z,5.78
2022-12-11T14:17:31.110Z,5.90
2022-12-11T14:20:02.399Z,6.40
2022-12-11T14:22:35.799Z,5.43
2022-12-11T14:25:29.616Z,5.88
2022-12-11T14:27:59.327Z,6.18
2022-12-11T14:30:37.086Z,5.97
2022-12-11T14:33:09.261Z,6.32
2022-12-11T14:35:45.866Z,5.90
2022-12-11T14:38:23.573Z,6.30
2022-12-11T14:40:56.190Z,5.85
2022-12-11T14:43:31.605Z,5.90
2022-12-11T14:46:05.645Z,6.25
2022-12-11T14:48:38.860Z,6.20
2022-12-11T14:51:16.794Z,6.30
2022-12-11T14:53:55.219Z,6.00
2022-12-11T14:56:29.014Z,6.47
2022-12-11T14:59:26.965Z,6.55
2022-12-11T15:02:39.352Z,7.07
2022-12-11T15:05:19.748Z,6.90
2022-12-11T15:08:05.582Z,6.30
2022-12-11T15:10:39.206Z,5.70
2022-12-11T15:13:14.216Z,6.88
2022-12-11T15:15:48.521Z,6.68
2022-12-11T15:18:25.817Z,7.68
2022-12-11T15:20:57.593Z,6.75
2022-12-11T21:10:17.244Z,11.13
2022-12-11T21:12:49.024Z,9.93
2022-12-11T21:15:17.734Z,9.55
2022-12-11T21:17:47.314Z,9.00
2022-12-11T21:20:18.580Z,8.50
2022-12-11T21:22:47.442Z,8.98
2022-12-11T21:25:18.373Z,9.23
2022-12-11T21:27:48.497Z,8.88
2022-12-11T21:30:17.458Z,10.07
2022-12-11T21:32:46.167Z,9.60
2022-12-11T21:35:16.499Z,9.17
2022-12-11T21:37:45.052Z,8.80
2022-12-11T21:40:16.734Z,9.75
2022-12-11T21:42:46.552Z,8.98
2022-12-11T21:48:04.404Z,8.50
2022-12-11T21:50:33.030Z,9.35
2022-12-11T21:53:02.076Z,8.93
2022-12-11T21:55:31.745Z,8.57
2022-12-11T21:58:00.377Z,8.98
2022-12-11T22:00:29.385Z,8.70
2022-12-11T22:02:57.875Z,8.48
2022-12-11T22:05:26.556Z,8.32
2022-12-11T22:07:55.499Z,8.27
2022-12-11T22:10:26.286Z,9.80
2022-12-11T22:12:56.995Z,9.63
2022-12-11T22:15:25.699Z,8.77
2022-12-11T22:17:54.226Z,27.13
2022-12-11T22:20:23.388Z,48.33
2022-12-11T22:22:53.411Z,47.08
2022-12-11T22:25:22.073Z,11.40
2022-12-11T22:27:51.478Z,9.43
2022-12-11T22:30:21.123Z,9.00
2022-12-11T22:32:49.990Z,8.55
2022-12-11T22:35:20.978Z,8.85
2022-12-11T22:37:52.900Z,9.43
2022-12-11T22:40:21.565Z,8.43
2022-12-11T22:42:50.452Z,8.77
2022-12-11T22:45:18.978Z,9.00
2022-12-11T22:47:51.004Z,8.20
2022-12-11T22:50:19.602Z,8.70
2022-12-11T22:52:48.112Z,8.82
2022-12-11T22:55:16.834Z,9.23
2022-12-11T22:57:45.461Z,8.30
2022-12-11T23:00:15.186Z,9.10
2022-12-11T23:02:43.988Z,9.43
2022-12-11T23:05:13.948Z,9.52
2022-12-11T23:07:42.731Z,8.45
2022-12-11T23:10:12.586Z,8.80
2022-12-11T23:12:41.689Z,8.93
2022-12-11T23:15:11.566Z,9.03
2022-12-11T23:17:41.136Z,8.45
2022-12-11T23:20:11.556Z,7.63
2022-12-11T23:22:42.049Z,8.15
2022-12-11T23:25:14.692Z,8.40
2022-12-11T23:27:45.081Z,9.20
2022-12-11T23:30:14.594Z,9.52
2022-12-11T23:32:43.723Z,8.98
2022-12-11T23:35:12.463Z,9.38
2022-12-11T23:37:42.382Z,8.73
2022-12-11T23:40:14.042Z,8.23
2022-12-11T23:42:42.629Z,8.57
2022-12-11T23:45:11.787Z,9.00
2022-12-11T23:47:40.705Z,8.18
2022-12-11T23:50:09.530Z,8.07
2022-12-11T23:52:37.978Z,7.70
2022-12-11T23:55:10.335Z,7.93
2022-12-11T23:57:39.117Z,7.65
